Martin Challenger — WDB2346 — position and weather

sailwx.info

Track history (hours):
 
Tides and Currents Weather Stations Pressure Air Temp Water Temp Dewpoint Dewpoint Depression Visibility Wind Speed Wind Dir Waves Ship Positions

Martin Challenger

Owner: MARTIN OPERATING PARTNERSHIP LP, VIDOR, TX. More information available from US FCC via Universal Licensing System and Coast Guard Vessel Documentation Center.

Last reported at 2014-Dec-20 16:33 UTC. Time now 2014-Dec-20 17:17 UTC.
Position N 29°47' W 095°05'.

Length 20 m; draft 2.9 m.

MMSI: 366874920.

Date/timePositionNaut miles runAvg speedWind from/ knotsBaromVisibWave heightAir tempDewpointWater temp
2014-Dec-20 16:33N 29°47' W 095°05'0 0.0
2014-Dec-20 15:30N 29°47' W 095°05'0 0.0
2014-Dec-20 14:26N 29°47' W 095°05'0 0.0
2014-Dec-20 13:28N 29°47' W 095°05'0 0.0
2014-Dec-20 09:30N 29°47' W 095°05'0 0.0
2014-Dec-20 00:33N 29°47' W 095°05'0 0.0
2014-Dec-19 23:10N 29°47' W 095°05'0 0.0
2014-Dec-19 22:33N 29°47' W 095°05'0 0.0
2014-Dec-19 21:33N 29°47' W 095°05'0 0.0
2014-Dec-19 20:33N 29°47' W 095°05'0 0.0
2014-Dec-19 19:33N 29°47' W 095°05'0 0.0
2014-Dec-19 18:33N 29°47' W 095°05'0 0.0
2014-Dec-19 17:33N 29°47' W 095°05'0 0.0
2014-Dec-19 16:33N 29°47' W 095°05'0 0.0
2014-Dec-19 15:29N 29°47' W 095°05'0 0.0
2014-Dec-19 14:33N 29°47' W 095°05'0 0.0
2014-Dec-19 01:33N 29°47' W 095°05'0 0.0
2014-Dec-19 00:33N 29°47' W 095°05'0 0.0
2014-Dec-18 23:23N 29°47' W 095°05'0 0.0
2014-Dec-18 22:33N 29°47' W 095°05'0 0.0
2014-Dec-18 21:33N 29°47' W 095°05'0 0.0
2014-Dec-18 20:33N 29°47' W 095°05'0 0.0
2014-Dec-18 19:33N 29°47' W 095°05'0 0.0
2014-Dec-18 18:33N 29°47' W 095°05'0 0.0
2014-Dec-18 17:33N 29°47' W 095°05'0 0.0
2014-Dec-18 16:33N 29°47' W 095°05'0 0.0
2014-Dec-18 15:33N 29°47' W 095°05'0 0.0
2014-Dec-18 14:33N 29°47' W 095°05'1 0.1
2014-Dec-18 07:31N 29°47' W 095°04'3 2.0
2014-Dec-18 06:07N 29°46' W 095°07'0 0.0
2014-Dec-18 01:32N 29°46' W 095°07'0 0.0
2014-Dec-17 23:12N 29°46' W 095°07'0 0.0
2014-Dec-17 22:33N 29°46' W 095°07'0 0.0
2014-Dec-17 21:33N 29°46' W 095°07'0 0.0
2014-Dec-17 20:33N 29°46' W 095°07'0 0.0
2014-Dec-17 19:32N 29°46' W 095°07'0 0.0
2014-Dec-17 17:10N 29°46' W 095°07'0 0.0
2014-Dec-17 15:33N 29°46' W 095°07'0 0.0
2014-Dec-17 14:33N 29°46' W 095°07'1 0.3
2014-Dec-17 10:20N 29°45' W 095°06'3 2.8
2014-Dec-17 09:26N 29°47' W 095°04'1 0.2
2014-Dec-17 03:33N 29°46' W 095°05'1 0.2
2014-Dec-16 19:33N 29°46' W 095°06'0 0.0
2014-Dec-16 18:33N 29°46' W 095°06'0 0.0
2014-Dec-16 17:32N 29°46' W 095°06'0 0.0
2014-Dec-16 16:33N 29°46' W 095°06'0 0.0
2014-Dec-16 15:33N 29°46' W 095°06'0 0.0
2014-Dec-16 14:33N 29°46' W 095°06'0 0.0
2014-Dec-16 13:33N 29°46' W 095°06'0 0.0
2014-Dec-16 12:33N 29°46' W 095°06'0 0.0
2014-Dec-16 11:33N 29°46' W 095°06'0 0.0
2014-Dec-16 10:33N 29°46' W 095°06'0 0.0
2014-Dec-16 09:33N 29°46' W 095°06'0 0.0
2014-Dec-16 08:33N 29°46' W 095°06'0 0.0
2014-Dec-16 07:33N 29°46' W 095°06'0 0.0
2014-Dec-16 06:33N 29°46' W 095°06'0 0.0
2014-Dec-16 05:33N 29°46' W 095°06'0 0.0
2014-Dec-16 04:31N 29°46' W 095°06'0 0.1
2014-Dec-16 03:29N 29°46' W 095°06'0 0.0
2014-Dec-16 02:31N 29°46' W 095°06'0 0.0
2014-Dec-16 01:30N 29°46' W 095°06'0 0.0
2014-Dec-16 00:33N 29°46' W 095°06'0 0.0
2014-Dec-15 23:18N 29°46' W 095°06'0 0.1
2014-Dec-15 22:33N 29°46' W 095°06'1 1.2
2014-Dec-15 21:33N 29°47' W 095°05'1 1.3
2014-Dec-15 20:33N 29°46' W 095°06'0 0.0
2014-Dec-15 19:33N 29°46' W 095°06'0 0.0
2014-Dec-15 18:33N 29°46' W 095°06'0 0.0
2014-Dec-15 17:33N 29°46' W 095°06'0 0.0
2014-Dec-15 16:33N 29°46' W 095°06'0 0.0
2014-Dec-15 15:30N 29°46' W 095°06'0 0.0
2014-Dec-15 14:31N 29°46' W 095°06'0 0.0
2014-Dec-14 22:27N 29°46' W 095°06'1 0.0
2014-Dec-14 05:27N 29°46' W 095°05'1 0.9
2014-Dec-14 04:30N 29°46' W 095°05'4 3.8
2014-Dec-14 03:33N 29°44' W 095°02'4 4.3
2014-Dec-14 02:33N 29°40' W 094°59'5 4.8
2014-Dec-14 01:32N 29°36' W 094°57'5 4.7
2014-Dec-14 00:24N 29°31' W 094°53'9 2.2
2014-Dec-13 20:19N 29°22' W 094°53'0 0.1
2014-Dec-13 19:18N 29°22' W 094°53'0 0.0
2014-Dec-11 16:14N 29°23' W 094°53'5 2.4
2014-Dec-11 14:16N 29°27' W 094°51'3 4.8
2014-Dec-11 13:33N 29°30' W 094°52'4 4.2
2014-Dec-11 12:33N 29°33' W 094°55'4 4.1
2014-Dec-11 11:33N 29°37' W 094°57'5 4.6
2014-Dec-11 10:33N 29°41' W 094°59'3 3.4
2014-Dec-11 09:33N 29°44' W 095°01'0 0.2
2014-Dec-11 08:33N 29°44' W 095°01'0 0.0
2014-Dec-11 07:33N 29°44' W 095°01'0 0.0
2014-Dec-11 06:33N 29°44' W 095°01'0 0.1
2014-Dec-11 05:33N 29°44' W 095°01'0 0.0
2014-Dec-11 04:33N 29°44' W 095°01'0 0.0
2014-Dec-11 03:33N 29°44' W 095°01'0 0.0
2014-Dec-11 02:33N 29°44' W 095°01'0 0.0
2014-Dec-11 01:33N 29°44' W 095°01'0 0.0
2014-Dec-11 00:34N 29°44' W 095°01'0 0.0
2014-Dec-10 23:33N 29°44' W 095°01'0 0.0
2014-Dec-10 22:33N 29°44' W 095°01'0 0.0
2014-Dec-10 21:33N 29°44' W 095°01'0 0.0
2014-Dec-10 20:33N 29°44' W 095°01'0 0.0
2014-Dec-10 19:33N 29°44' W 095°01'0 0.0
2014-Dec-10 18:33N 29°44' W 095°01'0 0.0
2014-Dec-10 17:33N 29°44' W 095°01'0 0.0
2014-Dec-10 16:33N 29°44' W 095°01'  
Track history (hours):
 
Tides and Currents Weather Stations Pressure Air Temp Water Temp Dewpoint Dewpoint Depression Visibility Wind Speed Wind Dir Waves Ship Positions

Martin Challenger

Owner: MARTIN OPERATING PARTNERSHIP LP, VIDOR, TX. More information available from US FCC via Universal Licensing System and Coast Guard Vessel Documentation Center.

Last reported at 2014-Dec-20 16:33 UTC. Time now 2014-Dec-20 17:17 UTC.
Position N 29°47' W 095°05'.

Length 20 m; draft 2.9 m.

MMSI: 366874920.

Date/timePositionNaut miles runAvg speedWind from/ knotsBaromVisibWave heightAir tempDewpointWater temp
2014-Dec-20 16:33N 29°47' W 095°05'0 0.0
2014-Dec-20 15:30N 29°47' W 095°05'0 0.0
2014-Dec-20 14:26N 29°47' W 095°05'0 0.0
2014-Dec-20 13:28N 29°47' W 095°05'0 0.0
2014-Dec-20 09:30N 29°47' W 095°05'0 0.0
2014-Dec-20 00:33N 29°47' W 095°05'0 0.0
2014-Dec-19 23:10N 29°47' W 095°05'0 0.0
2014-Dec-19 22:33N 29°47' W 095°05'0 0.0
2014-Dec-19 21:33N 29°47' W 095°05'0 0.0
2014-Dec-19 20:33N 29°47' W 095°05'0 0.0
2014-Dec-19 19:33N 29°47' W 095°05'0 0.0
2014-Dec-19 18:33N 29°47' W 095°05'0 0.0
2014-Dec-19 17:33N 29°47' W 095°05'0 0.0
2014-Dec-19 16:33N 29°47' W 095°05'0 0.0
2014-Dec-19 15:29N 29°47' W 095°05'0 0.0
2014-Dec-19 14:33N 29°47' W 095°05'0 0.0
2014-Dec-19 01:33N 29°47' W 095°05'0 0.0
2014-Dec-19 00:33N 29°47' W 095°05'0 0.0
2014-Dec-18 23:23N 29°47' W 095°05'0 0.0
2014-Dec-18 22:33N 29°47' W 095°05'0 0.0
2014-Dec-18 21:33N 29°47' W 095°05'0 0.0
2014-Dec-18 20:33N 29°47' W 095°05'0 0.0
2014-Dec-18 19:33N 29°47' W 095°05'0 0.0
2014-Dec-18 18:33N 29°47' W 095°05'0 0.0
2014-Dec-18 17:33N 29°47' W 095°05'0 0.0
2014-Dec-18 16:33N 29°47' W 095°05'0 0.0
2014-Dec-18 15:33N 29°47' W 095°05'0 0.0
2014-Dec-18 14:33N 29°47' W 095°05'1 0.1
2014-Dec-18 07:31N 29°47' W 095°04'3 2.0
2014-Dec-18 06:07N 29°46' W 095°07'0 0.0
2014-Dec-18 01:32N 29°46' W 095°07'0 0.0
2014-Dec-17 23:12N 29°46' W 095°07'0 0.0
2014-Dec-17 22:33N 29°46' W 095°07'0 0.0
2014-Dec-17 21:33N 29°46' W 095°07'0 0.0
2014-Dec-17 20:33N 29°46' W 095°07'0 0.0
2014-Dec-17 19:32N 29°46' W 095°07'0 0.0
2014-Dec-17 17:10N 29°46' W 095°07'0 0.0
2014-Dec-17 15:33N 29°46' W 095°07'0 0.0
2014-Dec-17 14:33N 29°46' W 095°07'1 0.3
2014-Dec-17 10:20N 29°45' W 095°06'3 2.8
2014-Dec-17 09:26N 29°47' W 095°04'1 0.2
2014-Dec-17 03:33N 29°46' W 095°05'1 0.2
2014-Dec-16 19:33N 29°46' W 095°06'0 0.0
2014-Dec-16 18:33N 29°46' W 095°06'0 0.0
2014-Dec-16 17:32N 29°46' W 095°06'0 0.0
2014-Dec-16 16:33N 29°46' W 095°06'0 0.0
2014-Dec-16 15:33N 29°46' W 095°06'0 0.0
2014-Dec-16 14:33N 29°46' W 095°06'0 0.0
2014-Dec-16 13:33N 29°46' W 095°06'0 0.0
2014-Dec-16 12:33N 29°46' W 095°06'0 0.0
2014-Dec-16 11:33N 29°46' W 095°06'0 0.0
2014-Dec-16 10:33N 29°46' W 095°06'0 0.0
2014-Dec-16 09:33N 29°46' W 095°06'0 0.0
2014-Dec-16 08:33N 29°46' W 095°06'0 0.0
2014-Dec-16 07:33N 29°46' W 095°06'0 0.0
2014-Dec-16 06:33N 29°46' W 095°06'0 0.0
2014-Dec-16 05:33N 29°46' W 095°06'0 0.0
2014-Dec-16 04:31N 29°46' W 095°06'0 0.1
2014-Dec-16 03:29N 29°46' W 095°06'0 0.0
2014-Dec-16 02:31N 29°46' W 095°06'0 0.0
2014-Dec-16 01:30N 29°46' W 095°06'0 0.0
2014-Dec-16 00:33N 29°46' W 095°06'0 0.0
2014-Dec-15 23:18N 29°46' W 095°06'0 0.1
2014-Dec-15 22:33N 29°46' W 095°06'1 1.2
2014-Dec-15 21:33N 29°47' W 095°05'1 1.3
2014-Dec-15 20:33N 29°46' W 095°06'0 0.0
2014-Dec-15 19:33N 29°46' W 095°06'0 0.0
2014-Dec-15 18:33N 29°46' W 095°06'0 0.0
2014-Dec-15 17:33N 29°46' W 095°06'0 0.0
2014-Dec-15 16:33N 29°46' W 095°06'0 0.0
2014-Dec-15 15:30N 29°46' W 095°06'0 0.0
2014-Dec-15 14:31N 29°46' W 095°06'0 0.0
2014-Dec-14 22:27N 29°46' W 095°06'1 0.0
2014-Dec-14 05:27N 29°46' W 095°05'1 0.9
2014-Dec-14 04:30N 29°46' W 095°05'4 3.8
2014-Dec-14 03:33N 29°44' W 095°02'4 4.3
2014-Dec-14 02:33N 29°40' W 094°59'5 4.8
2014-Dec-14 01:32N 29°36' W 094°57'5 4.7
2014-Dec-14 00:24N 29°31' W 094°53'9 2.2
2014-Dec-13 20:19N 29°22' W 094°53'0 0.1
2014-Dec-13 19:18N 29°22' W 094°53'0 0.0
2014-Dec-11 16:14N 29°23' W 094°53'5 2.4
2014-Dec-11 14:16N 29°27' W 094°51'3 4.8
2014-Dec-11 13:33N 29°30' W 094°52'4 4.2
2014-Dec-11 12:33N 29°33' W 094°55'4 4.1
2014-Dec-11 11:33N 29°37' W 094°57'5 4.6
2014-Dec-11 10:33N 29°41' W 094°59'3 3.4
2014-Dec-11 09:33N 29°44' W 095°01'0 0.2
2014-Dec-11 08:33N 29°44' W 095°01'0 0.0
2014-Dec-11 07:33N 29°44' W 095°01'0 0.0
2014-Dec-11 06:33N 29°44' W 095°01'0 0.1
2014-Dec-11 05:33N 29°44' W 095°01'0 0.0
2014-Dec-11 04:33N 29°44' W 095°01'0 0.0
2014-Dec-11 03:33N 29°44' W 095°01'0 0.0
2014-Dec-11 02:33N 29°44' W 095°01'0 0.0
2014-Dec-11 01:33N 29°44' W 095°01'0 0.0
2014-Dec-11 00:34N 29°44' W 095°01'0 0.0
2014-Dec-10 23:33N 29°44' W 095°01'0 0.0
2014-Dec-10 22:33N 29°44' W 095°01'0 0.0
2014-Dec-10 21:33N 29°44' W 095°01'0 0.0
2014-Dec-10 20:33N 29°44' W 095°01'0 0.0
2014-Dec-10 19:33N 29°44' W 095°01'0 0.0
2014-Dec-10 18:33N 29°44' W 095°01'0 0.0
2014-Dec-10 17:33N 29°44' W 095°01'0 0.0
2014-Dec-10 16:33N 29°44' W 095°01'  

Dump ship's entire track history